St.peterburg Pilot — UAMI — position and weather

sailwx.info

Track history (hours):
 
Tides and Currents Weather Stations Pressure Air Temp Water Temp Dewpoint Dewpoint Depression Visibility Wind Speed Wind Dir Waves Ship Positions

St.peterburg Pilot

Last reported at 2016-May-06 02:05 UTC. Time now 2016-May-06 07:17 UTC.
Position N 60°01' E 029°28'.

Length 59 m; draft 3.8 m.

Type: Pilot. MMSI: 273436530.

Date/timePositionNaut miles runAvg speedWind from/ knotsBaromVisibWave heightAir tempDewpointWater temp
2016-May-06 02:05N 60°01' E 029°28'0 0.0
2016-May-06 01:32N 60°01' E 029°28'0 0.0
2016-May-06 00:31N 60°01' E 029°28'0 0.0
2016-May-05 23:31N 60°01' E 029°28'0 0.0
2016-May-05 22:32N 60°01' E 029°28'7 0.6
2016-May-05 10:19N 59°59' E 029°42'18 8.9
2016-May-05 08:15N 60°06' E 029°08'810.7
2016-May-05 07:28N 60°12' E 028°56'1010.8
2016-May-05 06:33N 60°19' E 028°42'1310.7
2016-May-05 05:18N 60°29' E 028°26'6 1.6
2016-May-05 01:20N 60°24' E 028°33'911.0
2016-May-05 00:34N 60°18' E 028°44'1211.6
2016-May-04 23:32N 60°09' E 029°01'1311.6
2016-May-04 22:22N 60°02' E 029°24'1011.5
2016-May-04 21:32N 59°59' E 029°42'1 1.0
2016-May-04 20:33N 60°00' E 029°43'0 0.0
2016-May-04 19:33N 60°00' E 029°43'0 0.0
2016-May-04 18:33N 60°00' E 029°43'0 0.0
2016-May-04 17:33N 60°00' E 029°43'0 0.0
2016-May-04 16:33N 60°00' E 029°43'0 0.0
2016-May-04 15:33N 60°00' E 029°43'0 0.0
2016-May-04 14:33N 60°00' E 029°43'1 1.0
2016-May-04 13:31N 59°59' E 029°42'  
2016-Apr-27 17:32N 59°58' E 029°48'1010.3
2016-Apr-27 16:33N 59°54' E 030°06'4 4.0
2016-Apr-27 15:31N 59°55' E 030°14'0 0.0
2016-Apr-27 14:29N 59°55' E 030°14'0 0.0
2016-Apr-27 13:32N 59°55' E 030°14'0 0.0
2016-Apr-27 12:32N 59°55' E 030°14'0 0.0
2016-Apr-27 11:27N 59°55' E 030°14'0 0.0
2016-Apr-27 10:32N 59°55' E 030°14'0 0.0
2016-Apr-27 09:33N 59°55' E 030°14'0 0.0
2016-Apr-27 08:31N 59°55' E 030°14'0 0.0
2016-Apr-27 07:34N 59°55' E 030°14'4 3.6
2016-Apr-27 06:33N 59°54' E 030°07'1211.3
2016-Apr-27 05:27N 59°59' E 029°45'  
Track history (hours):
 
Tides and Currents Weather Stations Pressure Air Temp Water Temp Dewpoint Dewpoint Depression Visibility Wind Speed Wind Dir Waves Ship Positions

St.peterburg Pilot

Last reported at 2016-May-06 02:05 UTC. Time now 2016-May-06 07:17 UTC.
Position N 60°01' E 029°28'.

Length 59 m; draft 3.8 m.

Type: Pilot. MMSI: 273436530.

Date/timePositionNaut miles runAvg speedWind from/ knotsBaromVisibWave heightAir tempDewpointWater temp
2016-May-06 02:05N 60°01' E 029°28'0 0.0
2016-May-06 01:32N 60°01' E 029°28'0 0.0
2016-May-06 00:31N 60°01' E 029°28'0 0.0
2016-May-05 23:31N 60°01' E 029°28'0 0.0
2016-May-05 22:32N 60°01' E 029°28'7 0.6
2016-May-05 10:19N 59°59' E 029°42'18 8.9
2016-May-05 08:15N 60°06' E 029°08'810.7
2016-May-05 07:28N 60°12' E 028°56'1010.8
2016-May-05 06:33N 60°19' E 028°42'1310.7
2016-May-05 05:18N 60°29' E 028°26'6 1.6
2016-May-05 01:20N 60°24' E 028°33'911.0
2016-May-05 00:34N 60°18' E 028°44'1211.6
2016-May-04 23:32N 60°09' E 029°01'1311.6
2016-May-04 22:22N 60°02' E 029°24'1011.5
2016-May-04 21:32N 59°59' E 029°42'1 1.0
2016-May-04 20:33N 60°00' E 029°43'0 0.0
2016-May-04 19:33N 60°00' E 029°43'0 0.0
2016-May-04 18:33N 60°00' E 029°43'0 0.0
2016-May-04 17:33N 60°00' E 029°43'0 0.0
2016-May-04 16:33N 60°00' E 029°43'0 0.0
2016-May-04 15:33N 60°00' E 029°43'0 0.0
2016-May-04 14:33N 60°00' E 029°43'1 1.0
2016-May-04 13:31N 59°59' E 029°42'  
2016-Apr-27 17:32N 59°58' E 029°48'1010.3
2016-Apr-27 16:33N 59°54' E 030°06'4 4.0
2016-Apr-27 15:31N 59°55' E 030°14'0 0.0
2016-Apr-27 14:29N 59°55' E 030°14'0 0.0
2016-Apr-27 13:32N 59°55' E 030°14'0 0.0
2016-Apr-27 12:32N 59°55' E 030°14'0 0.0
2016-Apr-27 11:27N 59°55' E 030°14'0 0.0
2016-Apr-27 10:32N 59°55' E 030°14'0 0.0
2016-Apr-27 09:33N 59°55' E 030°14'0 0.0
2016-Apr-27 08:31N 59°55' E 030°14'0 0.0
2016-Apr-27 07:34N 59°55' E 030°14'4 3.6
2016-Apr-27 06:33N 59°54' E 030°07'1211.3
2016-Apr-27 05:27N 59°59' E 029°45'  

Dump ship's entire track history